Time;durP1;ratioP1;P1;durP2;ratioP2;P2;SDS_P1;SDS_P2;PMS_P1;PMS_P2;Temp;Humidity;BMP_temperature;BMP_pressure;BME280_temperature;BME280_humidity;BME280_pressure;Samples;Min_cycle;Max_cycle;Signal;HPM_P1;HPM_P2
2022/10/02 00:03:58;;;;;;;13.30;3.17;;;;;;;13.01;100.00;100623.63;20813124;28;20091;-69
2022/10/02 00:13:59;;;;;;;7.25;2.65;;;;;;;13.01;100.00;100644.66;20820266;28;20726;-69
2022/10/02 00:24:01;;;;;;;6.60;1.90;;;;;;;12.97;100.00;100635.09;20819516;28;20068;-69
2022/10/02 00:34:02;;;;;;;8.77;2.58;;;;;;;12.95;100.00;100652.69;20818545;28;20049;-69
2022/10/02 00:44:03;;;;;;;12.32;3.20;;;;;;;12.97;100.00;100666.63;20817680;28;20080;-68
2022/10/02 00:54:05;;;;;;;8.75;2.60;;;;;;;12.94;100.00;100669.34;20817790;28;20077;-69
2022/10/02 01:04:06;;;;;;;7.47;2.55;;;;;;;12.93;100.00;100646.56;20816401;28;20525;-68
2022/10/02 01:14:07;;;;;;;6.93;2.13;;;;;;;12.88;100.00;100642.31;20814448;28;20092;-69
2022/10/02 01:24:08;;;;;;;8.75;3.13;;;;;;;12.87;100.00;100649.34;20815589;28;20137;-69
2022/10/02 01:34:10;;;;;;;12.43;2.78;;;;;;;12.84;100.00;100662.56;20813935;28;20083;-68
2022/10/02 01:44:11;;;;;;;9.88;2.78;;;;;;;12.82;100.00;100653.81;20812493;28;20144;-68
2022/10/02 01:54:13;;;;;;;13.38;3.00;;;;;;;12.82;100.00;100675.72;20812285;28;20076;-68
2022/10/02 02:04:14;;;;;;;10.18;2.50;;;;;;;12.92;100.00;100663.25;20881994;28;20475;-68
2022/10/02 02:14:15;;;;;;;12.63;3.13;;;;;;;12.95;100.00;100660.56;20893786;28;20122;-68
2022/10/02 02:24:17;;;;;;;11.63;2.55;;;;;;;12.99;100.00;100651.72;20892567;28;20057;-69
2022/10/02 02:34:18;;;;;;;9.95;2.38;;;;;;;13.13;100.00;100668.94;20831790;28;20651;-68
2022/10/02 02:44:19;;;;;;;10.77;2.60;;;;;;;13.22;100.00;100674.91;20808726;28;20167;-68
2022/10/02 02:54:21;;;;;;;10.15;2.47;;;;;;;13.34;100.00;100671.13;20808183;28;20049;-68
2022/10/02 03:04:23;;;;;;;11.07;2.75;;;;;;;13.45;100.00;100677.00;20807728;28;20487;-68
2022/10/02 03:14:24;;;;;;;11.65;2.40;;;;;;;13.43;100.00;100660.41;20807091;28;20085;-69
2022/10/02 03:24:25;;;;;;;11.05;2.80;;;;;;;13.38;100.00;100648.25;20806289;28;20144;-69
2022/10/02 03:34:27;;;;;;;11.75;2.17;;;;;;;13.43;100.00;100657.78;20807966;28;20152;-69
2022/10/02 03:55:12;;;;;;;11.15;2.63;;;;;;;13.49;100.00;100678.66;20828010;28;20049;-77
2022/10/02 04:05:33;;;;;;;11.35;2.50;;;;;;;13.55;100.00;100677.66;20832417;28;20042;-78
2022/10/02 04:15:34;;;;;;;14.57;3.00;;;;;;;13.53;100.00;100680.31;20827539;28;20414;-77
2022/10/02 04:25:35;;;;;;;12.95;2.45;;;;;;;13.56;100.00;100674.13;20827052;28;20045;-78
2022/10/02 04:35:38;;;;;;;12.63;2.65;;;;;;;13.37;100.00;100678.97;20825326;28;20044;-77
2022/10/02 04:45:39;;;;;;;10.48;2.70;;;;;;;13.34;100.00;100671.13;20806842;28;20046;-77
2022/10/02 04:55:41;;;;;;;11.57;2.70;;;;;;;13.30;100.00;100657.19;20820784;28;20514;-77
2022/10/02 05:05:42;;;;;;;15.52;2.97;;;;;;;13.24;100.00;100653.84;20823143;28;20438;-77
2022/10/02 05:15:43;;;;;;;8.85;2.42;;;;;;;13.26;100.00;100670.44;20822590;28;20041;-77
2022/10/02 05:25:45;;;;;;;14.40;2.38;;;;;;;13.23;100.00;100681.03;20822098;28;20052;-77
2022/10/02 05:35:46;;;;;;;13.15;2.47;;;;;;;13.07;100.00;100681.31;20821258;28;20413;-78
2022/10/02 05:45:47;;;;;;;10.57;2.92;;;;;;;13.04;100.00;100665.63;20821374;28;20461;-77
2022/10/02 05:55:49;;;;;;;6.50;2.00;;;;;;;12.95;100.00;100651.81;20820359;28;20053;-76
2022/10/02 06:05:54;;;;;;;9.50;2.65;;;;;;;12.98;100.00;100673.66;20817898;28;20136;-77
2022/10/02 06:15:55;;;;;;;;;;;;;;;12.98;100.00;100675.38;20818711;28;20053;-77
2022/10/02 06:25:56;;;;;;;12.82;3.55;;;;;;;13.00;100.00;100670.97;20818659;28;19975;-77
2022/10/02 06:35:58;;;;;;;10.50;2.38;;;;;;;12.94;100.00;100669.34;20817300;28;20045;-77
2022/10/02 06:45:59;;;;;;;10.13;2.75;;;;;;;12.97;100.00;100642.97;20799117;28;20068;-77
2022/10/02 06:56:00;;;;;;;8.23;2.88;;;;;;;13.05;100.00;100641.06;20816444;28;20111;-77
2022/10/02 07:06:02;;;;;;;6.55;2.13;;;;;;;13.00;100.00;100642.06;20819226;28;20049;-78
2022/10/02 07:16:07;;;;;;;9.73;2.83;;;;;;;13.09;100.00;100634.84;20821850;28;20104;-77
2022/10/02 07:26:09;;;;;;;8.40;2.28;;;;;;;13.14;100.00;100631.25;20815330;28;20053;-77
2022/10/02 07:36:10;;;;;;;7.78;2.45;;;;;;;13.21;100.00;100609.16;20810933;28;20049;-77
2022/10/02 07:46:14;;;;;;;13.10;4.80;;;;;;;13.13;100.00;100605.84;20810424;28;20061;-77
2022/10/02 07:56:21;;;;;;;7.28;2.22;;;;;;;13.10;100.00;100623.41;20805686;28;20049;-77
2022/10/02 08:06:23;;;;;;;6.47;1.55;;;;;;;13.02;100.00;100641.13;20788687;28;20556;-77
2022/10/02 08:16:24;;;;;;;6.47;1.30;;;;;;;12.98;100.00;100656.97;20810983;28;20081;-77
2022/10/02 08:26:26;;;;;;;7.68;1.60;;;;;;;13.09;100.00;100666.38;20806543;28;20049;-78
2022/10/02 08:36:35;;;;;;;6.75;1.85;;;;;;;13.15;100.00;100680.28;20811331;28;20065;-78
2022/10/02 08:46:37;;;;;;;7.75;3.38;;;;;;;13.17;100.00;100675.84;20826477;28;20100;-77
2022/10/02 08:56:39;;;;;;;7.40;2.08;;;;;;;13.22;100.00;100652.97;20826648;28;20069;-78
2022/10/02 09:06:41;;;;;;;5.00;2.40;;;;;;;13.46;100.00;100620.00;20820723;28;20075;-78
2022/10/02 09:16:42;;;;;;;10.43;6.57;;;;;;;13.63;100.00;100630.13;20807339;28;20057;-78
2022/10/02 09:26:44;;;;;;;5.55;1.80;;;;;;;13.52;100.00;100631.25;20806114;28;20042;-79
2022/10/02 09:36:45;;;;;;;5.40;1.35;;;;;;;13.49;100.00;100652.34;20821891;28;20050;-78
2022/10/02 09:57:31;;;;;;;6.47;1.20;;;;;;;13.41;100.00;100662.19;20817523;28;20041;-78
2022/10/02 10:07:33;;;;;;;4.07;0.90;;;;;;;13.42;100.00;100648.16;20822594;28;20049;-78
2022/10/02 10:17:37;;;;;;;2.90;0.95;;;;;;;13.48;100.00;100649.78;20804964;28;20592;-78
2022/10/02 10:27:41;;;;;;;4.00;1.00;;;;;;;13.45;100.00;100655.09;20824431;28;20048;-78
2022/10/02 10:48:03;;;;;;;4.13;1.20;;;;;;;13.72;100.00;100664.09;20848947;28;20049;-79
2022/10/02 10:58:05;;;;;;;7.10;0.98;;;;;;;13.99;100.00;100645.00;20871610;28;20045;-79
2022/10/02 11:08:07;;;;;;;2.58;0.80;;;;;;;14.29;100.00;100642.44;20838216;28;20048;-79
2022/10/02 11:18:11;;;;;;;4.18;0.90;;;;;;;14.28;100.00;100633.69;20810936;28;20052;-79
2022/10/02 11:28:13;;;;;;;3.10;0.90;;;;;;;14.47;100.00;100631.41;20807456;28;20462;-78
2022/10/02 11:38:14;;;;;;;2.15;0.80;;;;;;;15.02;100.00;100631.59;20809279;28;20045;-79
2022/10/02 11:48:15;;;;;;;1.95;0.68;;;;;;;15.23;100.00;100630.06;20809209;28;20053;-79
2022/10/02 11:58:17;;;;;;;1.77;0.85;;;;;;;15.32;100.00;100629.78;20834047;28;20168;-79
2022/10/02 12:08:18;;;;;;;5.47;0.73;;;;;;;15.12;100.00;100641.81;20840810;28;20096;-78
2022/10/02 12:18:19;;;;;;;1.35;0.57;;;;;;;15.05;100.00;100652.59;20822263;28;20072;-79
2022/10/02 12:28:22;;;;;;;1.98;0.73;;;;;;;14.98;100.00;100656.31;20831744;28;20053;-78
2022/10/02 12:38:24;;;;;;;2.72;0.70;;;;;;;15.13;100.00;100667.25;20827906;28;20072;-79
2022/10/02 12:48:25;;;;;;;1.42;0.80;;;;;;;15.17;100.00;100654.00;20843259;28;20453;-78
2022/10/02 12:58:27;;;;;;;2.05;1.02;;;;;;;15.24;100.00;100634.44;20842582;28;20556;-79
2022/10/02 13:08:30;;;;;;;4.07;1.30;;;;;;;15.16;100.00;100639.09;20842962;28;20057;-79
2022/10/02 13:18:32;;;;;;;4.22;1.08;;;;;;;14.86;100.00;100663.69;20845208;28;20049;-79
2022/10/02 13:28:35;;;;;;;4.72;2.03;;;;;;;14.79;100.00;100687.63;20855307;28;20490;-79
2022/10/02 13:38:36;;;;;;;4.72;2.22;;;;;;;14.70;100.00;100670.28;20842516;28;20637;-80
2022/10/02 13:48:38;;;;;;;5.18;2.78;;;;;;;14.74;100.00;100663.19;20837596;28;20080;-79
2022/10/02 13:58:40;;;;;;;7.57;2.00;;;;;;;14.73;100.00;100670.22;20818994;28;20060;-79
2022/10/02 14:08:41;;;;;;;2.65;1.15;;;;;;;14.62;100.00;100660.00;20832383;28;20054;-80
2022/10/02 14:18:43;;;;;;;5.70;1.80;;;;;;;14.48;100.00;100662.16;20830197;28;20056;-80
2022/10/02 14:28:45;;;;;;;7.03;3.92;;;;;;;14.43;100.00;100658.75;20848926;28;20073;-80
2022/10/02 14:38:46;;;;;;;6.68;3.35;;;;;;;14.23;100.00;100645.22;20832696;28;20042;-80
2022/10/02 14:48:48;;;;;;;7.07;3.25;;;;;;;14.16;100.00;100606.81;20850131;28;20495;-80
2022/10/02 14:58:49;;;;;;;4.47;2.40;;;;;;;14.07;100.00;100639.50;20866672;28;20498;-79
2022/10/02 15:08:50;;;;;;;5.00;2.20;;;;;;;13.99;100.00;100658.16;20822152;28;20038;-80
2022/10/02 15:18:51;;;;;;;5.68;2.60;;;;;;;14.03;100.00;100695.78;20804391;28;20069;-80
2022/10/02 15:28:53;;;;;;;11.75;7.13;;;;;;;14.12;100.00;100691.16;20826962;28;20108;-80
2022/10/02 15:38:54;;;;;;;8.65;5.05;;;;;;;14.04;100.00;100687.88;20848579;28;20470;-80
2022/10/02 15:48:56;;;;;;;5.95;3.60;;;;;;;13.98;100.00;100697.66;20865155;28;20049;-81
2022/10/02 15:58:57;;;;;;;6.05;3.30;;;;;;;13.90;100.00;100718.06;20865065;28;20091;-81
2022/10/02 16:08:59;;;;;;;8.13;4.90;;;;;;;13.72;100.00;100720.22;20864646;28;20054;-81
2022/10/02 16:19:01;;;;;;;7.28;4.80;;;;;;;13.77;100.00;100735.91;20863964;28;20045;-80
2022/10/02 16:29:02;;;;;;;11.10;7.72;;;;;;;13.73;100.00;100755.31;20862070;28;20050;-80
2022/10/02 16:39:04;;;;;;;7.15;4.57;;;;;;;13.72;100.00;100766.72;20844775;28;20045;-80
2022/10/02 16:49:05;;;;;;;9.27;6.90;;;;;;;13.62;100.00;100762.59;20836281;28;20045;-78
2022/10/02 16:59:07;;;;;;;15.07;8.10;;;;;;;13.57;100.00;100776.69;20831361;28;20046;-78
2022/10/02 17:09:09;;;;;;;13.95;10.23;;;;;;;13.52;100.00;100794.34;20829875;28;20049;-79
2022/10/02 17:19:11;;;;;;;8.45;5.65;;;;;;;13.47;100.00;100837.44;20827131;28;20041;-79
2022/10/02 17:29:12;;;;;;;11.40;8.30;;;;;;;13.43;100.00;100836.63;20811025;28;20052;-79
2022/10/02 17:39:14;;;;;;;17.63;12.02;;;;;;;13.43;100.00;100847.16;20827758;28;20065;-79
2022/10/02 17:49:15;;;;;;;8.07;5.30;;;;;;;13.38;100.00;100838.50;20866986;28;20049;-82
2022/10/02 17:59:17;;;;;;;8.07;5.07;;;;;;;13.38;100.00;100827.97;20808887;28;20132;-80
2022/10/02 18:09:19;;;;;;;7.03;3.92;;;;;;;13.25;100.00;100818.59;20816724;28;20092;-79
2022/10/02 18:19:22;;;;;;;4.60;2.20;;;;;;;13.17;100.00;100868.66;20828332;28;20072;-80
2022/10/02 18:29:23;;;;;;;4.97;2.72;;;;;;;13.15;100.00;100852.06;20826599;28;20049;-79
2022/10/02 18:39:26;;;;;;;10.32;6.95;;;;;;;12.99;100.00;100871.66;20822911;28;20045;-79
2022/10/02 18:49:27;;;;;;;11.68;6.97;;;;;;;12.89;100.00;100894.59;20829726;28;20053;-78
2022/10/02 18:59:29;;;;;;;10.98;7.82;;;;;;;12.81;100.00;100910.47;20793296;28;20180;-77
2022/10/02 19:09:30;;;;;;;11.35;6.80;;;;;;;12.73;100.00;100916.75;20793612;28;20424;-78
2022/10/02 19:19:32;;;;;;;6.80;2.95;;;;;;;12.54;100.00;100945.06;20810418;28;20045;-77
2022/10/02 19:29:36;;;;;;;4.95;1.90;;;;;;;12.35;100.00;100972.50;20822416;28;20045;-79
2022/10/02 19:39:38;;;;;;;4.37;1.70;;;;;;;12.18;100.00;100984.09;20819499;28;20072;-78
2022/10/02 19:49:40;;;;;;;5.90;2.35;;;;;;;12.02;100.00;101001.78;20819752;28;20080;-78
2022/10/02 19:59:42;;;;;;;4.97;2.67;;;;;;;11.95;100.00;101030.75;20817944;28;20069;-79
2022/10/02 20:09:43;;;;;;;7.13;3.55;;;;;;;11.89;100.00;101038.69;20818885;28;20068;-78
2022/10/02 20:19:44;;;;;;;8.65;5.72;;;;;;;11.73;100.00;101059.78;20825508;28;20065;-79
2022/10/02 20:29:46;;;;;;;10.50;6.63;;;;;;;11.66;100.00;101049.41;20816925;28;20383;-78
2022/10/02 20:39:47;;;;;;;8.00;4.60;;;;;;;11.72;100.00;101063.31;20831963;28;20046;-79
2022/10/02 20:49:51;;;;;;;10.23;4.53;;;;;;;11.53;100.00;101090.59;20831836;28;20045;-79
2022/10/02 20:59:53;;;;;;;12.17;6.40;;;;;;;11.38;100.00;101094.22;20831294;28;20103;-79
2022/10/02 21:09:54;;;;;;;10.07;6.43;;;;;;;11.18;100.00;101114.47;20830730;28;20060;-78
2022/10/02 21:19:55;;;;;;;10.70;6.90;;;;;;;11.00;100.00;101129.41;20829479;28;20136;-78
2022/10/02 21:29:57;;;;;;;10.80;6.07;;;;;;;10.86;100.00;101141.72;20810230;28;20049;-80
2022/10/02 21:39:58;;;;;;;10.20;6.57;;;;;;;10.70;100.00;101150.53;20809361;28;20046;-78
2022/10/02 21:49:59;;;;;;;10.23;5.90;;;;;;;10.58;100.00;101153.19;20827096;28;20081;-78
2022/10/02 22:00:06;;;;;;;11.75;7.15;;;;;;;10.43;100.00;101157.59;20826368;28;20076;-78
2022/10/02 22:10:07;;;;;;;8.88;5.45;;;;;;;10.39;100.00;101176.81;20813878;28;20058;-79
2022/10/02 22:20:08;;;;;;;8.98;4.35;;;;;;;10.49;100.00;101170.69;20802979;28;20462;-78
2022/10/02 22:30:09;;;;;;;8.27;4.35;;;;;;;10.34;100.00;101180.31;20823664;28;20045;-81
2022/10/02 22:40:11;;;;;;;17.85;9.40;;;;;;;10.35;100.00;101189.91;20801072;28;20056;-79
2022/10/02 22:50:12;;;;;;;20.13;14.15;;;;;;;10.39;100.00;101194.25;20825331;23;20095;-72
2022/10/02 23:00:13;;;;;;;7.07;4.00;;;;;;;10.30;100.00;101205.66;20906074;22;20529;-70
2022/10/02 23:10:15;;;;;;;24.88;12.93;;;;;;;10.33;100.00;101204.75;20807290;28;20069;-70
2022/10/02 23:20:16;;;;;;;16.45;8.63;;;;;;;10.26;100.00;101196.06;20806755;28;20506;-68
2022/10/02 23:30:18;;;;;;;7.55;4.15;;;;;;;10.23;100.00;101201.25;20806420;28;20132;-68
2022/10/02 23:40:19;;;;;;;9.15;3.53;;;;;;;10.20;100.00;101220.44;20805542;28;20080;-69
2022/10/02 23:50:21;;;;;;;8.73;3.38;;;;;;;10.23;100.00;101224.81;20805346;28;20410;-69
